Time;durP1;ratioP1;P1;durP2;ratioP2;P2;SDS_P1;SDS_P2;PMS_P1;PMS_P2;Temp;Humidity;BMP_temperature;BMP_pressure;BME280_temperature;BME280_humidity;BME280_pressure;Samples;Min_cycle;Max_cycle;Signal;HPM_P1;HPM_P2
2022/08/01 00:02:21;;;;;;;6.95;6.18;;;;;;;31.26;39.58;100703.00;143725;569;46008;-84
2022/08/01 00:04:48;;;;;;;6.65;6.05;;;;;;;31.21;40.68;100711.50;143729;608;47002;-85
2022/08/01 00:07:15;;;;;;;11.30;8.10;;;;;;;31.26;40.80;100701.00;143722;609;49013;-84
2022/08/01 00:09:42;;;;;;;8.77;7.18;;;;;;;31.27;40.61;100704.63;143728;579;47004;-85
2022/08/01 00:12:09;;;;;;;6.53;5.18;;;;;;;31.15;41.37;100706.16;143725;599;47008;-85
2022/08/01 00:14:36;;;;;;;10.95;7.07;;;;;;;31.23;41.33;100704.50;143727;662;49004;-86
2022/08/01 00:17:03;;;;;;;6.43;5.75;;;;;;;31.29;40.94;100708.66;143725;625;47010;-84
2022/08/01 00:19:30;;;;;;;6.78;4.78;;;;;;;31.24;41.52;100689.44;143727;592;47005;-85
2022/08/01 00:21:57;;;;;;;9.05;4.97;;;;;;;31.27;41.82;100702.63;143726;615;47008;-83
2022/08/01 00:24:24;;;;;;;8.38;4.95;;;;;;;31.21;41.88;100700.41;143731;566;45010;-84
2022/08/01 00:26:51;;;;;;;8.25;5.18;;;;;;;31.22;42.04;100696.50;143728;647;46004;-83
2022/08/01 00:29:18;;;;;;;10.70;6.05;;;;;;;31.22;41.08;100697.31;143728;705;46010;-84
2022/08/01 00:31:45;;;;;;;9.27;6.18;;;;;;;31.29;39.90;100707.87;143727;569;45925;-84
2022/08/01 00:34:12;;;;;;;10.55;5.07;;;;;;;31.34;40.88;100706.84;143725;568;48004;-84
2022/08/01 00:36:39;;;;;;;9.85;5.43;;;;;;;31.30;40.16;100696.41;143729;622;45924;-83
2022/08/01 00:39:06;;;;;;;9.05;8.13;;;;;;;31.33;37.65;100697.69;143723;647;47016;-84
2022/08/01 00:41:33;;;;;;;10.15;9.15;;;;;;;31.36;37.22;100691.47;143729;588;45925;-83
2022/08/01 00:44:06;;;;;;;7.00;6.30;;;;;;;31.38;39.26;100705.00;143722;606;47004;-84
2022/08/01 00:46:34;;;;;;;7.30;5.03;;;;;;;31.36;40.09;100699.78;143726;614;46012;-83
2022/08/01 00:49:01;;;;;;;5.35;4.85;;;;;;;31.37;40.09;100690.31;143727;583;47004;-85
2022/08/01 00:51:29;;;;;;;6.85;5.75;;;;;;;31.29;42.38;100699.53;143721;598;47008;-84
2022/08/01 00:53:56;;;;;;;8.00;5.55;;;;;;;31.30;41.42;100698.37;143732;614;45010;-85
2022/08/01 00:56:25;;;;;;;7.28;6.20;;;;;;;31.27;38.91;100697.09;143726;568;48010;-83
2022/08/01 00:58:52;;;;;;;8.93;6.10;;;;;;;31.35;37.13;100703.72;143730;648;45012;-85
2022/08/01 01:01:20;;;;;;;10.07;6.93;;;;;;;31.36;40.62;100701.75;143727;592;46017;-85
2022/08/01 01:03:48;;;;;;;6.40;5.80;;;;;;;31.29;38.77;100692.00;143732;653;45011;-86
2022/08/01 01:07:12;;;;;;;9.50;5.97;;;;;;;31.31;35.15;100702.78;143728;580;46013;-85
2022/08/01 01:10:17;;;;;;;7.40;6.43;;;;;;;31.35;35.42;100683.50;143730;580;45012;-84
2022/08/01 01:13:08;;;;;;;10.50;7.15;;;;;;;31.35;34.43;100684.28;143729;596;45926;-84
2022/08/01 01:15:44;;;;;;;9.02;7.82;;;;;;;31.31;34.28;100680.59;143730;572;47004;-84
2022/08/01 01:18:22;;;;;;;10.73;6.18;;;;;;;31.29;34.39;100675.38;143726;573;46012;-83
2022/08/01 01:21:14;;;;;;;18.37;6.90;;;;;;;31.30;33.92;100665.88;143723;587;47007;-86
2022/08/01 01:24:19;;;;;;;11.15;6.70;;;;;;;31.33;34.18;100666.34;143726;576;47008;-84
2022/08/01 01:27:27;;;;;;;9.10;7.12;;;;;;;31.32;33.97;100673.06;143732;663;45011;-85
2022/08/01 01:30:01;;;;;;;7.75;6.82;;;;;;;31.29;34.23;100680.91;143728;679;46030;-86
2022/08/01 01:32:39;;;;;;;13.20;7.95;;;;;;;31.30;33.56;100677.00;143725;585;47006;-83
2022/08/01 01:35:14;;;;;;;13.00;7.03;;;;;;;31.29;33.73;100669.03;143722;629;47006;-84
2022/08/01 01:37:42;;;;;;;13.82;6.57;;;;;;;31.26;33.50;100670.50;143732;629;45010;-84
2022/08/01 01:40:11;;;;;;;8.13;7.07;;;;;;;31.25;33.75;100657.78;143725;619;47012;-83
2022/08/01 01:42:39;;;;;;;12.77;6.90;;;;;;;31.24;33.73;100661.69;143722;610;47006;-84
2022/08/01 01:45:08;;;;;;;12.73;7.22;;;;;;;31.23;33.13;100665.66;143729;666;45926;-83
2022/08/01 01:47:38;;;;;;;8.77;6.35;;;;;;;31.22;33.55;100669.56;143730;568;47004;-85
2022/08/01 01:50:07;;;;;;;8.27;6.07;;;;;;;31.24;33.39;100672.00;143729;646;45924;-86
2022/08/01 01:52:38;;;;;;;10.55;5.85;;;;;;;31.24;33.92;100672.00;143730;573;45012;-85
2022/08/01 01:55:08;;;;;;;13.57;7.30;;;;;;;31.23;33.70;100673.16;143728;620;47008;-85
2022/08/01 01:57:45;;;;;;;8.57;5.68;;;;;;;31.21;33.44;100679.03;143731;670;46004;-83
2022/08/01 02:00:14;;;;;;;15.20;6.85;;;;;;;31.18;33.53;100676.94;143730;627;45924;-85
2022/08/01 02:02:42;;;;;;;9.43;6.60;;;;;;;31.15;33.89;100678.41;143728;593;47006;-84
2022/08/01 02:05:11;;;;;;;9.57;6.10;;;;;;;31.12;33.83;100673.56;143730;590;45926;-84
2022/08/01 02:07:38;;;;;;;11.95;5.50;;;;;;;31.10;33.79;100684.16;143730;654;47006;-82
2022/08/01 02:10:08;;;;;;;7.75;5.60;;;;;;;31.07;33.77;100684.03;143730;621;46010;-83
2022/08/01 02:12:38;;;;;;;18.62;5.70;;;;;;;31.02;33.60;100693.38;143731;633;45012;-84
2022/08/01 02:15:07;;;;;;;12.13;5.85;;;;;;;31.00;33.42;100699.25;143730;592;45925;-84
2022/08/01 02:17:40;;;;;;;10.07;6.35;;;;;;;31.01;33.19;100708.37;143720;616;48004;-83
2022/08/01 02:20:08;;;;;;;7.68;5.78;;;;;;;31.02;33.52;100709.22;143725;635;47012;-84
2022/08/01 02:22:51;;;;;;;8.35;5.32;;;;;;;30.97;33.57;100716.56;143729;646;46004;-83
2022/08/01 02:25:34;;;;;;;5.43;4.97;;;;;;;30.96;33.69;100709.41;143729;601;45925;-83
2022/08/01 02:28:15;;;;;;;13.88;5.55;;;;;;;30.97;33.75;100715.78;143731;635;47004;-84
2022/08/01 02:30:46;;;;;;;5.97;5.40;;;;;;;30.96;33.52;100705.84;143730;639;45923;-83
2022/08/01 02:33:17;;;;;;;6.12;5.53;;;;;;;30.99;33.69;100719.00;143730;580;45012;-84
2022/08/01 02:35:47;;;;;;;6.15;5.30;;;;;;;30.99;33.59;100719.81;143729;583;45926;-85
2022/08/01 02:38:15;;;;;;;7.00;5.40;;;;;;;30.97;33.49;100727.66;143731;573;46006;-85
2022/08/01 02:40:45;;;;;;;7.43;5.72;;;;;;;30.96;33.63;100723.28;143721;584;47012;-84
2022/08/01 02:43:18;;;;;;;7.37;5.85;;;;;;;30.94;34.51;100739.44;143729;592;46004;-83
2022/08/01 02:45:52;;;;;;;5.90;5.30;;;;;;;30.96;37.38;100751.00;143730;586;45926;-84
2022/08/01 02:48:21;;;;;;;6.45;5.05;;;;;;;30.96;43.06;100759.31;143724;572;48002;-83
2022/08/01 02:50:50;;;;;;;6.18;5.28;;;;;;;30.91;41.08;100758.72;143729;572;46010;-84
2022/08/01 02:53:19;;;;;;;6.37;5.35;;;;;;;30.89;40.48;100756.25;143711;664;58004;-83
2022/08/01 02:55:48;;;;;;;6.97;5.47;;;;;;;30.92;41.18;100766.69;143730;634;45926;-84
2022/08/01 02:58:18;;;;;;;8.38;5.78;;;;;;;30.89;41.92;100766.56;143721;580;48009;-83
2022/08/01 03:00:47;;;;;;;6.07;5.47;;;;;;;30.82;42.67;100775.41;143727;596;47012;-83
2022/08/01 03:03:15;;;;;;;6.43;5.05;;;;;;;30.87;42.09;100772.44;143726;585;47006;-83
2022/08/01 03:05:44;;;;;;;6.05;5.45;;;;;;;30.94;43.28;100788.56;143728;774;46008;-85
2022/08/01 03:08:13;;;;;;;7.60;5.00;;;;;;;30.89;47.47;100788.75;143730;597;46012;-84
2022/08/01 03:10:43;;;;;;;7.03;5.25;;;;;;;30.80;42.64;100780.47;143730;567;45923;-82
2022/08/01 03:13:12;;;;;;;6.32;5.72;;;;;;;30.80;44.01;100781.28;143731;610;45012;-83
2022/08/01 03:15:41;;;;;;;5.80;5.30;;;;;;;30.85;38.54;100774.75;143729;576;45925;-83
2022/08/01 03:18:10;;;;;;;7.07;5.70;;;;;;;30.86;39.15;100784.69;143731;573;46008;-83
2022/08/01 03:20:37;;;;;;;6.53;5.22;;;;;;;30.90;40.04;100784.81;143730;588;45924;-84
2022/08/01 03:23:07;;;;;;;6.37;5.40;;;;;;;30.90;42.37;100784.81;143728;569;46004;-82
2022/08/01 03:25:36;;;;;;;6.72;5.18;;;;;;;30.91;42.62;100800.31;143730;590;45925;-84
2022/08/01 03:28:06;;;;;;;6.37;5.37;;;;;;;30.92;43.03;100802.75;143733;595;45010;-83
2022/08/01 03:30:35;;;;;;;6.43;4.62;;;;;;;30.89;39.91;100795.09;143729;621;46026;-84
2022/08/01 03:33:02;;;;;;;5.87;5.28;;;;;;;30.87;39.34;100794.62;143728;606;47006;-83
2022/08/01 03:35:34;;;;;;;6.45;5.15;;;;;;;30.87;38.31;100791.88;143727;606;47008;-83
2022/08/01 03:38:04;;;;;;;5.20;4.72;;;;;;;30.88;37.38;100796.25;143733;573;45010;-85
2022/08/01 03:40:50;;;;;;;7.75;4.85;;;;;;;30.93;37.33;100792.47;143731;596;45924;-82
2022/08/01 03:43:38;;;;;;;6.00;5.40;;;;;;;30.92;37.68;100791.66;143730;573;46010;-84
2022/08/01 03:46:12;;;;;;;6.75;4.87;;;;;;;30.88;35.39;100790.72;143725;638;47002;-85
2022/08/01 03:48:48;;;;;;;8.40;5.18;;;;;;;30.82;33.43;100795.63;143734;673;45011;-84
2022/08/01 03:51:17;;;;;;;11.38;4.97;;;;;;;30.82;33.73;100789.28;143726;615;47010;-83
2022/08/01 03:53:47;;;;;;;6.00;4.85;;;;;;;30.91;33.55;100786.44;143731;566;45927;-84
2022/08/01 03:56:22;;;;;;;5.50;4.65;;;;;;;30.89;33.96;100792.31;143726;662;49004;-83
2022/08/01 03:58:49;;;;;;;4.82;4.43;;;;;;;30.91;34.61;100792.78;143733;586;46008;-82
2022/08/01 04:01:17;;;;;;;5.45;4.90;;;;;;;30.94;34.11;100792.13;143730;594;46012;-84
2022/08/01 04:03:45;;;;;;;6.45;4.60;;;;;;;30.96;33.72;100794.59;143730;601;47004;-84
2022/08/01 04:06:13;;;;;;;6.93;5.05;;;;;;;30.96;34.53;100781.50;143728;614;46008;-83
2022/08/01 04:08:41;;;;;;;5.28;4.82;;;;;;;30.99;35.29;100780.84;143732;632;47004;-84
2022/08/01 04:11:09;;;;;;;5.40;4.82;;;;;;;30.99;34.79;100782.78;143727;589;47011;-84
2022/08/01 04:13:36;;;;;;;5.55;5.05;;;;;;;30.99;35.65;100774.47;143732;666;45012;-83
2022/08/01 04:16:03;;;;;;;5.62;5.12;;;;;;;30.97;36.59;100788.69;143730;636;46004;-83
2022/08/01 04:18:30;;;;;;;7.62;5.07;;;;;;;30.99;36.91;100789.16;143725;583;48004;-83
2022/08/01 04:20:57;;;;;;;7.82;5.07;;;;;;;31.01;36.02;100788.81;143731;591;45924;-84
2022/08/01 04:23:27;;;;;;;5.60;5.05;;;;;;;31.02;36.11;100790.44;143732;586;45012;-83
2022/08/01 04:25:56;;;;;;;6.53;5.00;;;;;;;30.97;35.57;100791.47;143731;662;45926;-84
2022/08/01 04:28:24;;;;;;;7.18;5.05;;;;;;;31.00;35.98;100781.66;143732;583;46013;-84
2022/08/01 04:30:54;;;;;;;6.82;5.18;;;;;;;30.99;36.60;100791.94;143731;616;45923;-83
2022/08/01 04:33:22;;;;;;;7.32;5.28;;;;;;;31.04;37.76;100790.91;143732;568;45013;-85
2022/08/01 04:35:50;;;;;;;6.20;5.15;;;;;;;31.09;39.34;100795.44;143730;630;45926;-82
2022/08/01 04:38:27;;;;;;;6.53;5.72;;;;;;;31.08;41.18;100800.19;143734;596;45010;-84
2022/08/01 04:40:54;;;;;;;5.62;5.10;;;;;;;31.10;39.47;100797.91;143728;626;46011;-82
2022/08/01 04:43:22;;;;;;;9.73;5.30;;;;;;;31.12;37.92;100795.63;143730;618;46002;-83
2022/08/01 04:45:51;;;;;;;6.05;5.15;;;;;;;31.11;40.18;100818.94;143730;667;47006;-84
2022/08/01 04:48:22;;;;;;;7.70;5.37;;;;;;;31.14;41.89;100812.75;143734;648;45011;-84
2022/08/01 04:50:48;;;;;;;5.68;4.95;;;;;;;31.14;42.12;100817.50;143731;572;45924;-84
2022/08/01 04:53:17;;;;;;;8.07;5.97;;;;;;;31.10;40.07;100803.47;143723;572;48002;-84
2022/08/01 04:55:45;;;;;;;7.78;5.55;;;;;;;31.11;39.12;100812.56;143729;576;45926;-83
2022/08/01 04:58:14;;;;;;;6.37;5.70;;;;;;;31.12;37.96;100801.16;143731;656;47000;-84
2022/08/01 05:00:40;;;;;;;6.60;5.97;;;;;;;31.13;38.23;100807.50;143728;638;46008;-83
2022/08/01 05:03:07;;;;;;;7.78;5.47;;;;;;;31.15;38.33;100816.34;143729;692;47002;-83
2022/08/01 05:05:35;;;;;;;6.10;5.50;;;;;;;31.20;37.90;100816.16;143731;614;45926;-83
2022/08/01 05:08:02;;;;;;;7.78;5.20;;;;;;;31.22;37.90;100819.41;143732;594;46002;-83
2022/08/01 05:10:29;;;;;;;5.57;5.07;;;;;;;31.23;36.81;100806.31;143731;604;45923;-84
2022/08/01 05:12:57;;;;;;;7.93;5.28;;;;;;;31.26;36.77;100809.22;143730;656;47002;-85
2022/08/01 05:15:24;;;;;;;7.57;5.72;;;;;;;31.29;36.80;100816.09;143731;581;45925;-83
2022/08/01 05:17:51;;;;;;;6.75;5.70;;;;;;;31.30;36.44;100812.16;143732;575;46003;-82
2022/08/01 05:20:18;;;;;;;8.75;5.60;;;;;;;31.28;36.05;100817.22;143731;638;45924;-83
2022/08/01 05:22:45;;;;;;;5.28;4.80;;;;;;;31.26;35.93;100823.09;143732;582;46008;-84
2022/08/01 05:25:13;;;;;;;6.97;5.00;;;;;;;31.22;35.81;100824.94;143731;611;45926;-84
2022/08/01 05:27:40;;;;;;;5.37;4.87;;;;;;;31.26;35.90;100813.97;143735;587;46002;-84
2022/08/01 05:30:10;;;;;;;5.30;4.80;;;;;;;31.28;36.46;100817.22;143730;575;46010;-83
2022/08/01 05:32:38;;;;;;;5.60;4.97;;;;;;;31.30;35.88;100821.28;143726;686;48004;-83
2022/08/01 05:35:05;;;;;;;6.32;5.50;;;;;;;31.31;36.26;100824.88;143728;633;47006;-84
2022/08/01 05:37:33;;;;;;;7.55;5.57;;;;;;;31.34;36.88;100828.94;143729;601;47000;-83
2022/08/01 05:40:00;;;;;;;8.65;5.10;;;;;;;31.35;36.59;100827.78;143731;613;45923;-84
2022/08/01 05:42:27;;;;;;;7.05;5.32;;;;;;;31.39;36.59;100828.75;143729;592;47002;-84
2022/08/01 05:44:59;;;;;;;6.15;5.47;;;;;;;31.41;37.02;100826.44;143729;578;45925;-85
2022/08/01 05:47:26;;;;;;;6.90;5.55;;;;;;;31.30;37.16;100834.38;143730;592;46002;-86
2022/08/01 05:49:54;;;;;;;6.62;5.80;;;;;;;31.35;37.56;100834.13;143727;567;46011;-85
2022/08/01 05:52:21;;;;;;;6.62;5.53;;;;;;;31.41;37.40;100837.56;143730;611;46011;-84
2022/08/01 05:54:48;;;;;;;9.75;5.87;;;;;;;31.47;38.48;100836.19;143722;643;47006;-83
2022/08/01 05:57:15;;;;;;;5.95;5.35;;;;;;;31.51;38.31;100841.84;143725;591;51000;-83
2022/08/01 05:59:43;;;;;;;6.37;5.60;;;;;;;31.54;39.22;100842.00;143730;621;46008;-84
2022/08/01 06:02:09;;;;;;;6.43;5.82;;;;;;;31.58;39.30;100842.12;143726;579;48004;-83
2022/08/01 06:04:37;;;;;;;6.70;5.57;;;;;;;31.61;39.19;100844.22;143731;632;45926;-83
2022/08/01 06:07:03;;;;;;;6.37;5.40;;;;;;;31.61;39.76;100850.59;143732;646;46002;-83
2022/08/01 06:09:31;;;;;;;6.70;5.85;;;;;;;31.63;39.69;100850.25;143727;580;46010;-85
2022/08/01 06:11:58;;;;;;;6.80;5.90;;;;;;;31.66;40.21;100846.81;143731;644;46002;-85
2022/08/01 06:14:25;;;;;;;6.47;5.87;;;;;;;31.69;39.55;100850.87;143723;580;46018;-84
2022/08/01 06:16:52;;;;;;;6.43;5.12;;;;;;;31.72;39.00;100853.00;143734;588;45010;-86
2022/08/01 06:19:19;;;;;;;6.55;5.55;;;;;;;31.77;38.87;100855.56;143726;573;47009;-84
2022/08/01 06:21:46;;;;;;;7.65;5.55;;;;;;;31.81;39.61;100850.94;143732;598;45012;-84
2022/08/01 06:24:13;;;;;;;7.00;5.68;;;;;;;31.82;40.63;100846.22;143728;597;47006;-84
2022/08/01 06:26:40;;;;;;;6.85;5.50;;;;;;;31.87;40.41;100848.75;143734;603;45010;-86
2022/08/01 06:29:07;;;;;;;7.05;6.05;;;;;;;31.89;40.63;100850.06;143726;608;47008;-84
2022/08/01 06:31:34;;;;;;;6.62;5.80;;;;;;;31.90;40.98;100848.91;143732;656;46002;-84
2022/08/01 06:34:01;;;;;;;6.68;5.15;;;;;;;31.93;39.36;100852.97;143727;714;46007;-83
2022/08/01 06:36:28;;;;;;;8.88;6.03;;;;;;;31.95;39.53;100856.22;143734;569;45010;-85
2022/08/01 06:38:56;;;;;;;6.55;5.95;;;;;;;32.00;39.68;100857.97;143730;568;46010;-84
2022/08/01 06:41:23;;;;;;;6.78;5.87;;;;;;;32.03;40.33;100852.56;143729;573;46005;-85
2022/08/01 06:43:49;;;;;;;14.57;7.65;;;;;;;32.10;39.58;100851.16;143729;618;45925;-84
2022/08/01 06:46:17;;;;;;;8.77;6.53;;;;;;;32.14;39.92;100850.13;143728;589;48000;-85
2022/08/01 06:48:46;;;;;;;10.38;6.78;;;;;;;32.19;40.54;100852.69;143730;573;46010;-84
2022/08/01 06:51:16;;;;;;;7.80;6.40;;;;;;;32.18;40.65;100845.50;143725;622;47004;-85
2022/08/01 06:53:43;;;;;;;9.45;6.22;;;;;;;32.21;38.79;100847.59;143731;580;45926;-85
2022/08/01 06:56:10;;;;;;;9.43;5.93;;;;;;;32.21;38.62;100846.81;143734;595;45010;-85
2022/08/01 06:58:38;;;;;;;12.30;5.80;;;;;;;32.03;39.44;100848.94;143731;629;45923;-84
2022/08/01 07:01:08;;;;;;;6.47;5.87;;;;;;;32.07;39.59;100849.88;143730;580;46004;-85
2022/08/01 07:03:36;;;;;;;6.15;5.55;;;;;;;31.99;39.55;100848.81;143730;646;46007;-85
2022/08/01 07:06:03;;;;;;;6.90;6.25;;;;;;;32.08;39.28;100845.97;143731;590;47004;-83
2022/08/01 07:08:30;;;;;;;6.93;5.85;;;;;;;32.15;39.37;100848.19;143729;566;46026;-83
2022/08/01 07:10:59;;;;;;;7.50;5.95;;;;;;;32.28;39.39;100858.19;143726;594;48002;-86
2022/08/01 07:13:27;;;;;;;6.75;5.78;;;;;;;32.24;38.54;100846.09;143724;577;47006;-86
2022/08/01 07:15:54;;;;;;;6.30;5.75;;;;;;;32.12;38.69;100849.69;143728;567;48002;-85
2022/08/01 07:18:21;;;;;;;7.05;6.20;;;;;;;32.11;38.03;100838.91;143728;617;47009;-84
2022/08/01 07:20:48;;;;;;;6.85;5.55;;;;;;;32.14;38.68;100841.78;143730;671;46002;-84
2022/08/01 07:23:15;;;;;;;10.20;6.32;;;;;;;32.01;38.83;100840.97;143729;577;46006;-84
2022/08/01 07:25:42;;;;;;;7.03;5.93;;;;;;;31.99;39.25;100846.03;143731;580;47002;-85
2022/08/01 07:28:09;;;;;;;6.68;6.00;;;;;;;32.00;38.83;100844.91;143725;617;47010;-84
2022/08/01 07:30:36;;;;;;;6.18;5.65;;;;;;;32.03;38.21;100851.72;143732;615;45012;-84
2022/08/01 07:33:03;;;;;;;6.72;5.82;;;;;;;32.10;39.28;100849.22;143722;576;48007;-84
2022/08/01 07:35:30;;;;;;;6.72;5.37;;;;;;;32.09;39.24;100847.59;143734;596;45010;-84
2022/08/01 07:37:57;;;;;;;6.45;5.85;;;;;;;32.13;38.26;100845.72;143731;594;45923;-84
2022/08/01 07:40:24;;;;;;;7.82;6.40;;;;;;;32.17;38.21;100841.09;143728;588;47005;-84
2022/08/01 07:42:51;;;;;;;8.55;5.93;;;;;;;32.26;38.59;100843.00;143731;645;45925;-85
2022/08/01 07:45:18;;;;;;;6.80;6.15;;;;;;;32.35;38.25;100844.56;143734;585;45010;-84
2022/08/01 07:47:46;;;;;;;7.32;6.62;;;;;;;32.42;37.92;100843.97;143720;596;50004;-85
2022/08/01 07:50:13;;;;;;;7.70;6.70;;;;;;;32.58;37.92;100852.44;143723;683;48002;-84
2022/08/01 07:52:40;;;;;;;8.88;6.57;;;;;;;32.75;37.46;100850.59;143722;591;48006;-85
2022/08/01 07:55:17;;;;;;;7.45;6.15;;;;;;;32.92;37.13;100853.16;143733;575;46004;-85
2022/08/01 07:57:47;;;;;;;6.10;5.60;;;;;;;33.04;36.74;100845.97;143730;572;46002;-82
2022/08/01 08:00:16;;;;;;;6.60;5.90;;;;;;;32.95;37.00;100849.69;143731;604;46002;-84
2022/08/01 08:02:43;;;;;;;15.60;14.00;;;;;;;33.00;35.65;100847.84;143731;699;45926;-84
2022/08/01 08:05:12;;;;;;;8.50;7.03;;;;;;;33.10;37.07;100845.41;143724;574;47004;-83
2022/08/01 08:07:39;;;;;;;8.85;7.40;;;;;;;33.24;36.41;100839.47;143730;572;46027;-84
2022/08/01 08:10:06;;;;;;;9.63;7.28;;;;;;;33.36;36.26;100841.41;143729;598;46004;-86
2022/08/01 08:12:34;;;;;;;11.15;5.93;;;;;;;33.41;35.31;100837.59;143728;572;47008;-83
2022/08/01 08:15:01;;;;;;;6.85;6.25;;;;;;;33.17;35.19;100835.66;143729;587;47004;-85
2022/08/01 08:17:28;;;;;;;6.18;5.50;;;;;;;33.06;35.18;100847.25;143729;628;46012;-86
2022/08/01 08:19:55;;;;;;;6.05;5.47;;;;;;;33.04;35.92;100848.75;143731;614;46004;-85
2022/08/01 08:22:22;;;;;;;6.65;5.57;;;;;;;33.08;35.50;100849.69;143731;601;45926;-84
2022/08/01 08:24:49;;;;;;;6.82;6.22;;;;;;;33.19;35.89;100847.22;143734;598;45011;-84
2022/08/01 08:27:17;;;;;;;9.20;8.32;;;;;;;33.38;34.97;100847.44;143728;694;46010;-84
2022/08/01 08:29:44;;;;;;;17.55;15.73;;;;;;;33.52;34.94;100849.06;143730;742;45012;-85
2022/08/01 08:32:11;;;;;;;6.55;5.87;;;;;;;33.60;34.83;100845.28;143727;612;45926;-86
2022/08/01 08:34:38;;;;;;;19.35;17.00;;;;;;;33.60;32.95;100842.50;143732;586;45010;-84
2022/08/01 08:37:05;;;;;;;18.75;16.73;;;;;;;33.63;33.84;100839.03;143727;604;47010;-84
2022/08/01 08:39:32;;;;;;;10.95;9.88;;;;;;;33.70;31.07;100838.41;143728;586;46013;-83
2022/08/01 08:42:00;;;;;;;19.33;14.25;;;;;;;33.73;30.44;100843.28;143728;581;46008;-83
2022/08/01 08:44:27;;;;;;;8.38;7.03;;;;;;;33.71;30.97;100840.81;143732;572;45010;-82
2022/08/01 08:46:55;;;;;;;13.05;7.30;;;;;;;33.69;31.74;100850.72;143726;579;47004;-84
2022/08/01 08:49:26;;;;;;;17.45;11.65;;;;;;;33.67;30.96;100841.91;143729;579;46004;-84
2022/08/01 08:51:54;;;;;;;7.30;6.55;;;;;;;33.67;30.83;100839.12;143721;622;45926;-87
2022/08/01 08:54:24;;;;;;;13.05;10.43;;;;;;;33.76;32.86;100848.16;143730;573;46004;-85
2022/08/01 08:56:55;;;;;;;13.77;9.38;;;;;;;33.85;32.99;100843.22;143728;646;46006;-84
2022/08/01 08:59:24;;;;;;;10.63;6.78;;;;;;;33.96;32.14;100843.53;143729;620;45927;-83
2022/08/01 09:01:51;;;;;;;12.45;8.32;;;;;;;33.99;31.00;100844.78;143728;587;46009;-84
2022/08/01 09:04:21;;;;;;;9.52;8.63;;;;;;;33.96;30.76;100851.09;143732;592;45010;-83
2022/08/01 09:06:47;;;;;;;7.70;6.03;;;;;;;33.91;31.18;100845.78;143726;565;47012;-83
2022/08/01 09:09:14;;;;;;;6.65;4.70;;;;;;;33.95;31.65;100839.12;143728;592;46006;-83
2022/08/01 09:11:41;;;;;;;6.20;4.57;;;;;;;33.98;31.77;100849.56;143729;618;45924;-85
2022/08/01 09:14:14;;;;;;;5.85;4.32;;;;;;;34.12;31.25;100840.78;143730;621;47004;-84
2022/08/01 09:16:44;;;;;;;10.85;8.32;;;;;;;34.34;30.66;100841.34;143729;619;45924;-84
2022/08/01 09:19:19;;;;;;;6.47;5.60;;;;;;;34.49;32.65;100847.31;143729;579;45928;-84
2022/08/01 09:22:03;;;;;;;7.07;6.32;;;;;;;34.62;32.62;100834.91;143724;611;48006;-84
2022/08/01 09:24:31;;;;;;;9.13;7.30;;;;;;;34.69;31.84;100837.06;143729;583;46006;-85
2022/08/01 09:26:58;;;;;;;9.98;7.30;;;;;;;34.78;31.65;100832.06;143728;596;46010;-84
2022/08/01 09:29:31;;;;;;;7.15;6.55;;;;;;;34.78;34.04;100829.28;143729;602;46004;-87
2022/08/01 09:31:59;;;;;;;6.50;5.90;;;;;;;34.69;33.93;100829.47;143728;584;46009;-85
2022/08/01 09:34:33;;;;;;;6.50;5.90;;;;;;;34.74;33.87;100832.00;143731;615;46006;-84
2022/08/01 09:37:02;;;;;;;7.18;6.12;;;;;;;34.85;33.44;100825.88;143729;648;45923;-84
2022/08/01 09:39:37;;;;;;;5.65;5.12;;;;;;;34.90;33.41;100829.19;143730;644;45024;-84
2022/08/01 09:42:26;;;;;;;7.00;5.75;;;;;;;34.97;33.34;100824.97;143727;604;45925;-84
2022/08/01 09:44:53;;;;;;;5.97;5.43;;;;;;;34.94;32.36;100823.72;143732;576;45010;-85
2022/08/01 09:47:21;;;;;;;6.12;5.62;;;;;;;34.89;33.72;100829.53;143724;619;47011;-87
2022/08/01 09:49:57;;;;;;;6.18;5.57;;;;;;;34.65;34.00;100825.00;143729;574;45928;-86
2022/08/01 09:52:25;;;;;;;7.97;5.55;;;;;;;34.67;34.19;100822.66;143726;607;46008;-87
2022/08/01 09:54:56;;;;;;;5.85;5.30;;;;;;;34.80;32.63;100826.16;143732;594;45010;-86
2022/08/01 09:57:23;;;;;;;7.47;6.62;;;;;;;34.92;32.17;100815.69;143727;639;46012;-85
2022/08/01 09:59:52;;;;;;;6.30;5.30;;;;;;;34.94;31.29;100818.12;143726;573;47004;-85
2022/08/01 10:02:46;;;;;;;6.45;5.12;;;;;;;34.92;32.64;100809.28;143726;597;46009;-85
2022/08/01 10:05:17;;;;;;;7.30;5.60;;;;;;;34.94;32.63;100806.97;143729;616;45010;-84
2022/08/01 10:07:59;;;;;;;8.07;5.12;;;;;;;35.00;33.26;100811.09;143727;624;46012;-84
2022/08/01 10:10:26;;;;;;;7.75;5.60;;;;;;;35.01;31.64;100798.78;143728;629;46002;-88
2022/08/01 10:12:55;;;;;;;6.80;5.28;;;;;;;34.66;32.78;100807.91;143729;612;46006;-86
2022/08/01 10:15:23;;;;;;;8.30;6.15;;;;;;;34.64;32.91;100796.31;143725;569;47004;-85
2022/08/01 10:17:58;;;;;;;9.27;5.80;;;;;;;34.69;32.80;100798.78;143729;628;45924;-83
2022/08/01 10:20:30;;;;;;;6.45;5.75;;;;;;;34.88;32.70;100800.00;143727;646;47002;-84
2022/08/01 10:23:01;;;;;;;7.30;6.60;;;;;;;35.01;33.20;100797.94;143729;615;45926;-84
2022/08/01 10:25:36;;;;;;;7.35;5.32;;;;;;;35.00;31.72;100813.06;143722;736;47004;-87
2022/08/01 10:28:14;;;;;;;6.15;5.10;;;;;;;34.94;32.28;100804.19;143722;596;50008;-86
2022/08/01 10:30:42;;;;;;;5.87;5.25;;;;;;;34.42;33.57;100798.56;143724;615;47004;-86
2022/08/01 10:33:10;;;;;;;5.78;5.00;;;;;;;34.49;32.96;100799.91;143729;650;45926;-84
2022/08/01 10:35:39;;;;;;;6.37;5.25;;;;;;;34.51;33.85;100797.59;143731;572;46002;-88
2022/08/01 10:38:07;;;;;;;7.50;5.75;;;;;;;34.31;34.43;100797.47;143722;577;48008;-86
2022/08/01 10:40:36;;;;;;;7.95;5.30;;;;;;;34.28;33.41;100804.56;143723;589;47004;-87
2022/08/01 10:43:03;;;;;;;5.82;5.22;;;;;;;33.99;33.68;100798.25;143729;586;45925;-87
2022/08/01 10:45:31;;;;;;;6.57;5.50;;;;;;;34.11;33.15;100807.69;143731;626;46011;-85
2022/08/01 10:48:11;;;;;;;6.75;5.10;;;;;;;33.98;32.85;100799.41;143729;696;45924;-85
2022/08/01 10:50:47;;;;;;;6.20;5.60;;;;;;;34.03;32.67;100792.75;143730;606;45012;-84
2022/08/01 10:53:21;;;;;;;5.72;5.15;;;;;;;34.04;33.38;100791.59;143723;722;47006;-85
2022/08/01 10:56:09;;;;;;;5.85;5.25;;;;;;;34.25;34.35;100793.31;143732;636;45010;-84
2022/08/01 10:58:40;;;;;;;7.10;5.20;;;;;;;34.19;33.78;100801.16;143723;628;47010;-86
2022/08/01 11:01:35;;;;;;;8.45;5.07;;;;;;;33.91;33.92;100795.63;143730;605;45012;-85
2022/08/01 11:04:08;;;;;;;6.32;5.47;;;;;;;33.97;34.35;100785.84;143724;590;49006;-86
2022/08/01 11:07:04;;;;;;;7.72;5.00;;;;;;;33.92;34.57;100800.03;143725;609;47004;-85
2022/08/01 11:09:45;;;;;;;6.80;5.62;;;;;;;34.04;34.37;100794.38;143727;596;47008;-85
2022/08/01 11:12:19;;;;;;;7.03;5.28;;;;;;;33.92;35.20;100783.31;143726;588;47002;-85
2022/08/01 11:15:30;;;;;;;6.05;4.87;;;;;;;34.00;34.28;100793.47;143730;599;45926;-85
2022/08/01 11:17:59;;;;;;;5.57;5.07;;;;;;;33.81;33.88;100794.16;143731;569;46002;-83
2022/08/01 11:20:32;;;;;;;5.90;5.40;;;;;;;33.87;33.51;100778.78;143728;586;46004;-86
2022/08/01 11:23:16;;;;;;;;;;;;;;;34.00;32.94;100783.16;143732;980;47002;-86
2022/08/01 11:26:02;;;;;;;;;;;;;;;34.07;34.01;100782.53;143734;985;46008;-86
2022/08/01 11:28:31;;;;;;;7.72;5.00;;;;;;;34.08;33.03;100781.34;143733;574;47000;-85
2022/08/01 11:31:26;;;;;;;5.72;4.90;;;;;;;33.98;32.73;100781.88;143728;638;46009;-84
2022/08/01 11:33:53;;;;;;;6.43;5.20;;;;;;;33.89;33.28;100770.06;143724;619;48004;-82
2022/08/01 11:36:21;;;;;;;5.53;5.03;;;;;;;33.84;33.02;100777.50;143728;558;45925;-84
2022/08/01 11:39:13;;;;;;;5.82;5.18;;;;;;;33.95;32.81;100768.69;143722;565;49995;-84
2022/08/01 11:41:41;;;;;;;6.00;5.10;;;;;;;33.95;32.50;100769.47;143729;630;45010;-83